createdAt,value
2017-11-01T00:00:25.849Z,89.4
2017-11-01T00:01:27.683Z,88.7
2017-11-01T00:02:29.118Z,88.7
2017-11-01T00:03:30.660Z,87.9
2017-11-01T00:04:32.113Z,88.2
2017-11-01T00:05:33.590Z,87.9
2017-11-01T00:06:35.074Z,86.3
2017-11-01T00:07:36.569Z,86.5
2017-11-01T00:08:38.068Z,86.5
2017-11-01T00:09:39.616Z,85.6
2017-11-01T00:10:41.088Z,86.2
2017-11-01T00:11:42.559Z,85.5
2017-11-01T00:12:44.046Z,85.4
2017-11-01T00:13:45.582Z,85.7
2017-11-01T00:14:47.082Z,85.6
2017-11-01T00:15:48.623Z,86.3
2017-11-01T00:16:50.089Z,85.7
2017-11-01T00:17:51.610Z,86.6
2017-11-01T00:18:53.107Z,86.2
2017-11-01T00:19:55.009Z,86.7
2017-11-01T00:20:56.486Z,87.8
2017-11-01T00:21:58.025Z,87.5
2017-11-01T00:22:59.510Z,87.3
2017-11-01T00:24:01.001Z,86.2
2017-11-01T00:25:02.550Z,85.7
2017-11-01T00:26:04.023Z,87.1
2017-11-01T00:27:05.545Z,89.3
2017-11-01T00:28:07.050Z,89.5
2017-11-01T00:29:08.498Z,88.4
2017-11-01T00:30:10.023Z,88.5
2017-11-01T00:31:11.539Z,86.7
2017-11-01T00:32:13.045Z,87.1
2017-11-01T00:33:14.519Z,87.6
2017-11-01T00:34:16.013Z,88.2
2017-11-01T00:35:18.516Z,88.7
2017-11-01T00:36:19.999Z,87.2
2017-11-01T00:37:21.503Z,87.6
2017-11-01T00:38:22.988Z,88.6
2017-11-01T00:39:24.502Z,88.5
2017-11-01T00:40:26.007Z,87.6
2017-11-01T00:41:27.574Z,87.3
2017-11-01T00:42:29.052Z,87.1
2017-11-01T00:43:30.567Z,88.3
2017-11-01T00:44:32.070Z,87.7
2017-11-01T00:45:33.567Z,87.8
2017-11-01T00:46:35.052Z,87.7
2017-11-01T00:47:36.637Z,87.2
2017-11-01T00:48:38.112Z,87.4
2017-11-01T00:49:39.599Z,88.0
2017-11-01T00:50:41.073Z,87.5
2017-11-01T00:51:42.548Z,87.3
2017-11-01T00:52:44.068Z,87.5
2017-11-01T00:53:45.606Z,87.3
2017-11-01T00:54:47.099Z,86.3
2017-11-01T00:55:48.601Z,85.7
2017-11-01T00:56:50.142Z,86.2
2017-11-01T00:57:51.577Z,86.4
2017-11-01T00:58:53.116Z,86.9
2017-11-01T00:59:54.570Z,87.2
2017-11-01T01:00:56.072Z,88.1
2017-11-01T01:01:57.562Z,88.0
2017-11-01T01:02:59.025Z,87.9
2017-11-01T01:04:00.527Z,88.2
2017-11-01T01:05:02.218Z,87.9
2017-11-01T01:06:03.755Z,87.3
2017-11-01T01:07:05.220Z,87.0
2017-11-01T01:08:07.560Z,86.4
2017-11-01T01:09:09.021Z,86.4
2017-11-01T01:10:10.482Z,86.7
2017-11-01T01:11:11.931Z,86.1
2017-11-01T01:12:13.394Z,87.0
2017-11-01T01:13:14.924Z,86.2
2017-11-01T01:14:16.434Z,85.8
2017-11-01T01:15:17.905Z,86.2
2017-11-01T01:16:19.450Z,86.4
2017-11-01T01:17:20.923Z,86.7
2017-11-01T01:18:22.418Z,85.9
2017-11-01T01:19:23.943Z,85.4
2017-11-01T01:20:25.417Z,85.9
2017-11-01T01:21:26.928Z,86.4
2017-11-01T01:22:28.393Z,86.3
2017-11-01T01:23:29.861Z,86.3
2017-11-01T01:24:31.407Z,86.3
2017-11-01T01:25:32.914Z,87.0
2017-11-01T01:26:34.392Z,87.0
2017-11-01T01:27:35.840Z,86.9
2017-11-01T01:28:37.370Z,87.0
2017-11-01T01:29:38.863Z,86.3
2017-11-01T01:30:40.324Z,86.6
2017-11-01T01:31:41.804Z,86.2
2017-11-01T01:32:43.276Z,86.4
2017-11-01T01:33:44.771Z,86.1
2017-11-01T01:34:46.249Z,86.2
2017-11-01T01:35:47.763Z,86.1
2017-11-01T01:36:49.238Z,86.3
2017-11-01T01:37:50.747Z,86.7
2017-11-01T01:38:52.247Z,87.2
2017-11-01T01:39:53.726Z,87.5
2017-11-01T01:40:55.241Z,87.1
2017-11-01T01:41:56.689Z,87.0
2017-11-01T01:42:58.183Z,86.4
2017-11-01T01:43:59.666Z,86.2
2017-11-01T01:45:01.269Z,86.6
2017-11-01T01:46:02.769Z,86.6
2017-11-01T01:47:04.271Z,86.4
2017-11-01T01:48:05.739Z,86.3
2017-11-01T01:49:07.326Z,85.9
2017-11-01T01:50:08.836Z,86.3
2017-11-01T01:51:10.314Z,85.5
2017-11-01T01:52:11.817Z,86.3
2017-11-01T01:53:13.325Z,85.7
2017-11-01T01:54:14.814Z,86.3
2017-11-01T01:55:16.397Z,86.6
2017-11-01T01:56:17.904Z,86.2
2017-11-01T01:57:19.424Z,86.1
2017-11-01T01:58:20.915Z,86.9
2017-11-01T01:59:22.496Z,87.3
2017-11-01T02:00:24.032Z,87.3
2017-11-01T02:01:25.525Z,87.5
2017-11-01T02:02:27.015Z,87.3
2017-11-01T02:03:28.550Z,87.3
2017-11-01T02:04:30.054Z,86.7
2017-11-01T02:05:32.567Z,86.2
2017-11-01T02:06:34.098Z,86.7
2017-11-01T02:07:35.558Z,86.7
2017-11-01T02:08:37.084Z,87.7
2017-11-01T02:09:38.555Z,87.1
2017-11-01T02:10:40.082Z,86.7
2017-11-01T02:11:41.576Z,87.3
2017-11-01T02:12:43.067Z,87.5
2017-11-01T02:13:44.551Z,87.7
2017-11-01T02:14:46.317Z,86.9
2017-11-01T02:15:47.851Z,86.9
2017-11-01T02:16:49.362Z,86.7
2017-11-01T02:17:50.876Z,86.3
2017-11-01T02:18:52.342Z,85.6
2017-11-01T02:19:53.821Z,85.5
2017-11-01T02:20:55.346Z,85.0
2017-11-01T02:21:56.849Z,84.4
2017-11-01T02:22:58.352Z,85.1
2017-11-01T02:23:59.890Z,85.3
2017-11-01T02:25:01.416Z,85.5
2017-11-01T02:26:02.911Z,86.3
2017-11-01T02:27:04.459Z,86.4
2017-11-01T02:28:05.918Z,85.9
2017-11-01T02:29:07.440Z,85.4
2017-11-01T02:30:08.898Z,85.5
2017-11-01T02:31:10.478Z,86.7
2017-11-01T02:32:12.018Z,86.8
2017-11-01T02:33:13.514Z,86.9
2017-11-01T02:34:15.045Z,86.7
2017-11-01T02:35:16.534Z,87.0
2017-11-01T02:36:18.085Z,87.7
2017-11-01T02:37:19.628Z,86.6
2017-11-01T02:38:21.109Z,87.3
2017-11-01T02:39:22.604Z,87.5
2017-11-01T02:40:24.102Z,87.4
2017-11-01T02:41:25.591Z,87.4
2017-11-01T02:42:27.086Z,86.5
2017-11-01T02:43:28.540Z,85.7
2017-11-01T02:44:30.046Z,86.4
2017-11-01T02:45:31.559Z,86.5
2017-11-01T02:46:34.082Z,86.3
2017-11-01T02:47:35.530Z,85.3
2017-11-01T02:48:37.025Z,86.3
2017-11-01T02:49:38.488Z,86.3
2017-11-01T02:50:39.991Z,87.0
2017-11-01T02:51:41.489Z,85.9
2017-11-01T02:52:43.050Z,86.3
2017-11-01T02:53:44.581Z,86.3
2017-11-01T02:54:46.040Z,86.5
2017-11-01T02:55:47.518Z,87.1
2017-11-01T02:56:50.020Z,86.2
2017-11-01T02:57:51.495Z,86.0
2017-11-01T02:58:53.004Z,85.5
2017-11-01T02:59:54.456Z,86.3
2017-11-01T03:00:55.975Z,85.7
2017-11-01T03:01:57.505Z,85.6
2017-11-01T03:02:58.990Z,85.8
2017-11-01T03:04:00.492Z,86.2
2017-11-01T03:05:01.970Z,85.8
2017-11-01T03:06:03.458Z,86.0
2017-11-01T03:07:05.924Z,86.2
2017-11-01T03:08:07.481Z,88.0
2017-11-01T03:09:08.954Z,88.0
2017-11-01T03:10:10.500Z,88.2
2017-11-01T03:11:11.990Z,87.2
2017-11-01T03:12:13.457Z,87.1
2017-11-01T03:13:14.951Z,86.3
2017-11-01T03:14:16.537Z,86.4
2017-11-01T03:15:18.026Z,86.5
2017-11-01T03:16:19.510Z,85.9
2017-11-01T03:17:21.033Z,86.4
2017-11-01T03:18:22.596Z,86.3
2017-11-01T03:19:24.086Z,86.9
2017-11-01T03:20:25.705Z,87.2
2017-11-01T03:21:27.218Z,87.9
2017-11-01T03:22:28.719Z,88.3
2017-11-01T03:23:30.196Z,88.2
2017-11-01T03:24:31.713Z,88.4
2017-11-01T03:25:33.254Z,88.4
2017-11-01T03:26:34.745Z,89.2
2017-11-01T03:27:36.245Z,89.5
2017-11-01T03:28:37.714Z,89.2
2017-11-01T03:29:39.222Z,89.3
2017-11-01T03:30:40.702Z,89.2
2017-11-01T03:31:42.161Z,88.5
2017-11-01T03:32:43.688Z,88.1
2017-11-01T03:33:45.117Z,88.0
2017-11-01T03:34:46.584Z,88.8
2017-11-01T03:35:49.081Z,88.8
2017-11-01T03:36:50.578Z,88.8
2017-11-01T03:37:52.043Z,90.2
2017-11-01T03:38:53.505Z,90.3
2017-11-01T03:39:54.996Z,90.4
2017-11-01T03:40:56.466Z,90.1
2017-11-01T03:41:57.930Z,90.0
2017-11-01T03:42:59.395Z,90.1
2017-11-01T03:44:00.854Z,89.4
2017-11-01T03:45:02.329Z,90.1
2017-11-01T03:46:03.829Z,89.8
2017-11-01T03:47:05.239Z,89.6
2017-11-01T03:48:06.729Z,89.2
2017-11-01T03:49:08.228Z,89.7
2017-11-01T03:50:09.691Z,90.2
2017-11-01T03:51:11.180Z,90.3
2017-11-01T03:52:12.665Z,90.2
2017-11-01T03:53:14.144Z,89.1
2017-11-01T03:54:15.636Z,89.7
2017-11-01T03:55:17.091Z,89.2
2017-11-01T03:56:18.576Z,89.1
2017-11-01T03:57:20.079Z,89.0
2017-11-01T03:58:21.567Z,89.0
2017-11-01T03:59:23.058Z,88.8
2017-11-01T04:00:24.523Z,88.6
2017-11-01T04:01:25.998Z,88.4
2017-11-01T04:02:27.474Z,88.9
2017-11-01T04:03:28.965Z,88.8
2017-11-01T04:04:30.439Z,89.1
2017-11-01T04:05:31.965Z,89.4
2017-11-01T04:06:33.430Z,89.6
2017-11-01T04:07:34.895Z,90.2
2017-11-01T04:08:36.382Z,90.6
2017-11-01T04:09:37.883Z,90.4
2017-11-01T04:10:39.364Z,90.3
2017-11-01T04:11:40.889Z,90.0
2017-11-01T04:12:42.387Z,90.4
2017-11-01T04:13:43.848Z,90.0
2017-11-01T04:14:45.297Z,90.3
2017-11-01T04:15:46.815Z,90.3
2017-11-01T04:16:48.398Z,89.9
2017-11-01T04:17:50.868Z,89.8
2017-11-01T04:18:52.348Z,89.8
2017-11-01T04:19:53.824Z,89.5
2017-11-01T04:20:55.309Z,89.8
2017-11-01T04:21:56.799Z,90.4
2017-11-01T04:22:58.263Z,90.4
2017-11-01T04:23:59.717Z,90.6
2017-11-01T04:25:01.241Z,91.0
2017-11-01T04:26:02.744Z,90.7
2017-11-01T04:27:04.299Z,90.7
2017-11-01T04:28:05.755Z,90.4
2017-11-01T04:29:07.239Z,90.6
2017-11-01T04:30:08.737Z,89.7
2017-11-01T04:31:10.210Z,89.6
2017-11-01T04:32:11.731Z,89.4
2017-11-01T04:33:13.257Z,89.7
2017-11-01T04:34:14.721Z,90.1
2017-11-01T04:35:16.499Z,90.0
2017-11-01T04:36:18.070Z,89.3
2017-11-01T04:37:19.564Z,89.4
2017-11-01T04:38:22.144Z,89.0
2017-11-01T04:39:23.721Z,89.4
2017-11-01T04:40:25.294Z,89.9
2017-11-01T04:41:26.826Z,90.1
2017-11-01T04:42:28.478Z,90.6
2017-11-01T04:43:29.972Z,91.1
2017-11-01T04:44:31.520Z,91.9
2017-11-01T04:45:33.022Z,92.9
2017-11-01T04:46:34.632Z,93.0
2017-11-01T04:47:36.092Z,91.7
2017-11-01T04:48:37.648Z,92.4
2017-11-01T04:49:39.186Z,94.4
2017-11-01T04:50:40.823Z,95.3
2017-11-01T04:51:42.349Z,95.0
2017-11-01T04:52:43.895Z,93.6
2017-11-01T04:53:45.433Z,92.9
2017-11-01T04:54:46.914Z,93.1
2017-11-01T04:55:48.466Z,93.6
2017-11-01T04:56:50.034Z,93.6
2017-11-01T04:57:51.597Z,93.5
2017-11-01T04:58:53.151Z,93.5
2017-11-01T04:59:54.710Z,94.0
2017-11-01T05:00:56.178Z,93.9
2017-11-01T05:01:57.886Z,93.7
2017-11-01T05:02:59.369Z,92.9
2017-11-01T05:04:00.861Z,92.7
2017-11-01T05:05:02.364Z,93.1
2017-11-01T05:06:03.886Z,94.4
2017-11-01T05:07:05.409Z,93.5
2017-11-01T05:08:06.920Z,93.7
2017-11-01T05:09:08.493Z,94.2
2017-11-01T05:10:10.000Z,94.7
2017-11-01T05:11:11.577Z,95.7
2017-11-01T05:12:13.070Z,95.2
2017-11-01T05:13:14.664Z,94.2
2017-11-01T05:14:16.187Z,93.9
2017-11-01T05:15:17.689Z,94.1
2017-11-01T05:16:19.202Z,94.2
2017-11-01T05:17:20.675Z,93.3
2017-11-01T05:18:22.184Z,93.9
2017-11-01T05:19:24.677Z,93.3
2017-11-01T05:20:26.197Z,93.0
2017-11-01T05:21:27.692Z,93.7
2017-11-01T05:22:29.146Z,94.0
2017-11-01T05:23:30.622Z,94.2
2017-11-01T05:24:32.107Z,94.2
2017-11-01T05:25:33.656Z,93.6
2017-11-01T05:26:35.148Z,93.6
2017-11-01T05:27:36.769Z,93.2
2017-11-01T05:28:38.211Z,93.8
2017-11-01T05:29:39.721Z,92.4
2017-11-01T05:30:41.240Z,91.9
2017-11-01T05:31:42.720Z,91.9
2017-11-01T05:32:44.151Z,91.9
2017-11-01T05:33:45.726Z,92.4
2017-11-01T05:34:47.214Z,93.0
2017-11-01T05:35:48.693Z,93.3
2017-11-01T05:36:50.167Z,93.1
2017-11-01T05:37:51.660Z,93.6
2017-11-01T05:38:53.135Z,93.8
2017-11-01T05:39:54.609Z,94.0
2017-11-01T05:40:56.096Z,93.7
2017-11-01T05:41:57.618Z,93.2
2017-11-01T05:42:59.069Z,93.8
2017-11-01T05:44:00.564Z,93.4
2017-11-01T05:45:02.060Z,93.7
2017-11-01T05:46:03.582Z,94.0
2017-11-01T05:47:05.048Z,94.5
2017-11-01T05:48:06.762Z,94.5
2017-11-01T05:49:08.237Z,95.4
2017-11-01T05:50:09.807Z,95.1
2017-11-01T05:51:11.327Z,94.4
2017-11-01T05:52:12.819Z,95.1
2017-11-01T05:53:14.286Z,94.5
2017-11-01T05:54:15.788Z,94.6
2017-11-01T05:55:17.271Z,94.7
2017-11-01T05:56:18.820Z,94.1
2017-11-01T05:57:20.317Z,94.5
2017-11-01T05:58:21.828Z,94.8
2017-11-01T05:59:23.344Z,92.8
2017-11-01T06:00:24.919Z,92.0
2017-11-01T06:01:26.416Z,92.7
2017-11-01T06:02:27.891Z,93.5
2017-11-01T06:03:29.379Z,94.1
2017-11-01T06:04:30.901Z,93.8
2017-11-01T06:05:32.410Z,94.4
2017-11-01T06:06:33.944Z,93.3
2017-11-01T06:07:35.463Z,94.1
2017-11-01T06:08:37.020Z,94.2
2017-11-01T06:09:38.496Z,92.5
2017-11-01T06:10:39.997Z,92.1
2017-11-01T06:11:41.473Z,93.5
2017-11-01T06:12:42.937Z,91.8
2017-11-01T06:13:44.423Z,92.6
2017-11-01T06:14:45.901Z,92.6
2017-11-01T06:15:47.391Z,92.7
2017-11-01T06:16:48.853Z,92.8
2017-11-01T06:17:50.351Z,93.1
2017-11-01T06:18:51.846Z,92.3
2017-11-01T06:19:53.392Z,92.7
2017-11-01T06:20:54.856Z,92.5
2017-11-01T06:21:56.381Z,93.0
2017-11-01T06:22:57.914Z,92.2
2017-11-01T06:23:59.399Z,91.7
2017-11-01T06:25:00.951Z,90.9
2017-11-01T06:26:02.518Z,91.4
2017-11-01T06:27:04.085Z,91.8
2017-11-01T06:28:05.592Z,91.9
2017-11-01T06:29:07.093Z,90.8
2017-11-01T06:30:08.664Z,90.2
2017-11-01T06:31:10.171Z,90.2
2017-11-01T06:32:11.677Z,90.5
2017-11-01T06:33:13.951Z,89.8
2017-11-01T06:34:15.509Z,89.9
2017-11-01T06:35:17.011Z,90.9
2017-11-01T06:36:18.457Z,90.1
2017-11-01T06:37:19.952Z,90.0
2017-11-01T06:38:21.427Z,90.9
2017-11-01T06:39:22.968Z,91.2
2017-11-01T06:40:25.049Z,90.1
2017-11-01T06:41:25.891Z,91.0
2017-11-01T06:42:27.367Z,90.9
2017-11-01T06:43:28.849Z,90.9
2017-11-01T06:44:30.945Z,90.1
2017-11-01T06:45:32.451Z,90.3
2017-11-01T06:46:34.763Z,90.8
2017-11-01T06:47:36.247Z,91.4
2017-11-01T06:48:38.467Z,91.2
2017-11-01T06:49:39.941Z,91.6
2017-11-01T06:50:41.414Z,91.1
2017-11-01T06:51:42.852Z,89.4
2017-11-01T06:52:44.339Z,90.0
2017-11-01T06:53:46.460Z,90.3
2017-11-01T06:54:47.982Z,90.7
2017-11-01T06:55:50.248Z,90.8
2017-11-01T06:56:51.732Z,90.7
2017-11-01T06:57:53.843Z,90.9
2017-11-01T06:58:55.328Z,91.5
2017-11-01T06:59:56.815Z,91.1
2017-11-01T07:00:58.285Z,92.0
2017-11-01T07:01:59.801Z,91.2
2017-11-01T07:03:01.276Z,91.7
2017-11-01T07:04:03.799Z,92.1
2017-11-01T07:05:05.277Z,91.2
2017-11-01T07:06:07.639Z,92.2
2017-11-01T07:07:09.121Z,92.1
2017-11-01T07:08:10.583Z,91.7
2017-11-01T07:09:12.083Z,92.2
2017-11-01T07:10:13.544Z,91.9
2017-11-01T07:11:15.041Z,92.6
2017-11-01T07:12:16.547Z,92.6
2017-11-01T07:13:18.860Z,92.4
2017-11-01T07:14:20.341Z,91.6
2017-11-01T07:15:21.803Z,91.3
2017-11-01T07:16:24.001Z,90.9
2017-11-01T07:17:25.500Z,89.5
2017-11-01T07:18:27.849Z,90.1
2017-11-01T07:19:29.353Z,90.1
2017-11-01T07:20:30.832Z,89.9
2017-11-01T07:21:32.377Z,89.2
2017-11-01T07:22:33.901Z,89.3
2017-11-01T07:23:35.357Z,90.2
2017-11-01T07:24:37.823Z,89.9
2017-11-01T07:25:39.266Z,89.3
2017-11-01T07:26:40.763Z,89.1
2017-11-01T07:27:42.235Z,89.6
2017-11-01T07:28:43.793Z,89.8
2017-11-01T07:29:45.307Z,89.0
2017-11-01T07:30:46.769Z,88.8
2017-11-01T07:31:48.281Z,89.3
2017-11-01T07:32:49.748Z,89.4
2017-11-01T07:33:51.199Z,88.5
2017-11-01T07:34:52.781Z,88.5
2017-11-01T07:35:54.291Z,88.0
2017-11-01T07:36:55.916Z,88.0
2017-11-01T07:37:57.425Z,88.9
2017-11-01T07:38:58.932Z,87.7
2017-11-01T07:40:00.423Z,88.9
2017-11-01T07:41:01.950Z,88.7
2017-11-01T07:42:03.435Z,88.2
2017-11-01T07:43:04.921Z,87.9
2017-11-01T07:44:06.477Z,87.9
2017-11-01T07:45:08.008Z,87.5
2017-11-01T07:46:09.516Z,88.0
2017-11-01T07:47:11.063Z,88.2
2017-11-01T07:48:12.585Z,88.6
2017-11-01T07:49:14.037Z,88.1
2017-11-01T07:50:15.584Z,87.8
2017-11-01T07:51:17.099Z,88.0
2017-11-01T07:52:18.633Z,88.5
2017-11-01T07:53:20.118Z,88.3
2017-11-01T07:54:21.615Z,87.9
2017-11-01T07:55:23.090Z,87.9
2017-11-01T07:56:24.583Z,88.5
2017-11-01T07:57:26.072Z,88.9
2017-11-01T07:58:27.638Z,88.7
2017-11-01T07:59:29.107Z,87.9
2017-11-01T08:00:30.641Z,87.6
2017-11-01T08:01:32.249Z,87.7
2017-11-01T08:02:35.568Z,88.1
2017-11-01T08:03:36.558Z,88.1
2017-11-01T08:04:38.114Z,88.6
2017-11-01T08:05:39.610Z,87.9
2017-11-01T08:06:41.157Z,88.0
2017-11-01T08:07:42.649Z,87.9
2017-11-01T08:08:44.168Z,88.1
2017-11-01T08:09:45.643Z,87.9
2017-11-01T08:10:47.153Z,88.4
2017-11-01T08:11:48.675Z,87.9
2017-11-01T08:12:50.205Z,87.9
2017-11-01T08:13:51.718Z,89.2
2017-11-01T08:14:53.227Z,88.8
2017-11-01T08:15:54.726Z,89.1
2017-11-01T08:16:57.210Z,88.1
2017-11-01T08:17:58.740Z,88.0
2017-11-01T08:19:00.203Z,87.6
2017-11-01T08:20:01.729Z,87.8
2017-11-01T08:21:03.313Z,86.9
2017-11-01T08:22:04.877Z,87.9
2017-11-01T08:23:06.392Z,88.2
2017-11-01T08:24:07.942Z,87.5
2017-11-01T08:25:09.441Z,87.2
2017-11-01T08:26:10.949Z,87.1
2017-11-01T08:27:13.470Z,86.8
2017-11-01T08:28:15.090Z,86.7
2017-11-01T08:29:17.669Z,87.7
2017-11-01T08:30:19.252Z,87.9
2017-11-01T08:31:20.851Z,87.5
2017-11-01T08:32:22.388Z,87.2
2017-11-01T08:33:24.881Z,86.6
2017-11-01T08:34:26.415Z,86.2
2017-11-01T08:35:27.939Z,86.0
2017-11-01T08:36:29.472Z,85.3
2017-11-01T08:37:30.981Z,85.3
2017-11-01T08:38:32.624Z,85.4
2017-11-01T08:39:34.118Z,86.3
2017-11-01T08:40:35.583Z,85.9
2017-11-01T08:41:37.096Z,86.5
2017-11-01T08:42:38.638Z,86.4
2017-11-01T08:43:40.216Z,85.9
2017-11-01T08:44:41.729Z,86.4
2017-11-01T08:45:43.258Z,85.0
2017-11-01T08:46:44.783Z,85.1
2017-11-01T08:47:46.380Z,85.3
2017-11-01T08:48:47.914Z,86.2
2017-11-01T08:49:49.502Z,86.2
2017-11-01T08:50:51.077Z,85.2
2017-11-01T08:51:52.568Z,85.4
2017-11-01T08:52:54.199Z,85.2
2017-11-01T08:53:55.804Z,85.4
2017-11-01T08:54:57.352Z,85.3
2017-11-01T08:55:58.990Z,85.2
2017-11-01T08:57:00.643Z,85.2
2017-11-01T08:58:02.268Z,85.4
2017-11-01T08:59:03.823Z,84.7
2017-11-01T09:00:05.507Z,85.0
2017-11-01T09:01:07.122Z,84.8
2017-11-01T09:02:08.821Z,84.9
2017-11-01T09:03:10.336Z,85.2
2017-11-01T09:04:11.869Z,84.9
2017-11-01T09:05:13.422Z,84.9
2017-11-01T09:06:16.043Z,85.4
2017-11-01T09:07:17.651Z,84.7
2017-11-01T09:08:19.176Z,84.7
2017-11-01T09:09:20.708Z,83.2
2017-11-01T09:10:22.222Z,83.7
2017-11-01T09:11:24.337Z,83.1
2017-11-01T09:12:25.906Z,82.5
2017-11-01T09:13:27.419Z,81.4
2017-11-01T09:14:29.182Z,79.8
2017-11-01T09:15:30.781Z,79.0
2017-11-01T09:16:32.948Z,79.8
2017-11-01T09:17:34.868Z,80.0
2017-11-01T09:18:36.404Z,79.6
2017-11-01T09:19:38.316Z,79.9
2017-11-01T09:20:39.996Z,78.8
2017-11-01T09:21:41.698Z,79.3
2017-11-01T09:22:43.418Z,79.5
2017-11-01T09:23:45.441Z,78.6
2017-11-01T09:24:47.376Z,76.3
2017-11-01T09:25:49.007Z,76.9
2017-11-01T09:26:51.746Z,76.8
2017-11-01T09:27:53.514Z,76.2
2017-11-01T09:28:55.307Z,76.2
2017-11-01T09:29:57.221Z,76.0
2017-11-01T09:30:59.153Z,75.0
2017-11-01T09:32:00.906Z,75.4
2017-11-01T09:33:02.832Z,74.8
2017-11-01T09:34:04.623Z,74.6
2017-11-01T09:35:06.529Z,74.4
2017-11-01T09:36:08.362Z,73.1
2017-11-01T09:37:10.069Z,73.6
2017-11-01T09:38:11.776Z,73.6
2017-11-01T09:39:13.520Z,74.4
2017-11-01T09:40:15.366Z,75.0
2017-11-01T09:41:17.297Z,74.9
2017-11-01T09:42:19.072Z,74.5
2017-11-01T09:43:20.793Z,72.7
2017-11-01T09:44:22.844Z,72.7
2017-11-01T09:45:24.612Z,71.8
2017-11-01T09:46:26.299Z,72.2
2017-11-01T09:47:27.993Z,71.7
2017-11-01T09:48:29.888Z,71.6
2017-11-01T09:49:32.063Z,71.3
2017-11-01T09:50:34.127Z,72.3
2017-11-01T09:51:36.352Z,72.5
2017-11-01T09:52:38.202Z,71.9
2017-11-01T09:53:40.124Z,71.6
2017-11-01T09:54:42.096Z,71.3
2017-11-01T09:55:44.080Z,71.9
2017-11-01T09:56:45.835Z,70.6
2017-11-01T09:57:47.844Z,70.9
2017-11-01T09:58:49.748Z,73.3
2017-11-01T09:59:51.517Z,72.3
2017-11-01T10:00:53.760Z,71.0
2017-11-01T10:01:55.580Z,70.7
2017-11-01T10:02:57.363Z,69.8
2017-11-01T10:04:00.320Z,70.2
2017-11-01T10:05:02.010Z,70.3
2017-11-01T10:06:04.584Z,71.2
2017-11-01T10:07:06.445Z,70.4
2017-11-01T10:08:08.055Z,70.8
2017-11-01T10:09:09.840Z,69.6
2017-11-01T10:10:12.013Z,69.4
2017-11-01T10:11:13.806Z,69.1
2017-11-01T10:12:16.821Z,68.5
2017-11-01T10:13:18.609Z,69.0
2017-11-01T10:14:20.345Z,70.1
2017-11-01T10:15:21.990Z,70.5
2017-11-01T10:16:23.792Z,70.4
2017-11-01T10:17:25.493Z,69.4
2017-11-01T10:18:27.246Z,69.6
2017-11-01T10:19:28.949Z,71.0
2017-11-01T10:20:30.732Z,69.5
2017-11-01T10:21:32.450Z,68.9
2017-11-01T10:22:34.236Z,69.9
2017-11-01T10:23:36.130Z,70.1
2017-11-01T10:24:37.850Z,70.4
2017-11-01T10:25:39.442Z,70.4
2017-11-01T10:26:41.089Z,70.2
2017-11-01T10:27:42.658Z,69.8
2017-11-01T10:28:44.587Z,68.9
2017-11-01T10:29:46.533Z,68.4
2017-11-01T10:30:49.385Z,69.1
2017-11-01T10:31:51.439Z,70.7
2017-11-01T10:32:54.506Z,69.6
2017-11-01T10:33:56.412Z,69.7
2017-11-01T10:34:58.271Z,70.2
2017-11-01T10:35:59.952Z,70.2
2017-11-01T10:37:01.744Z,69.2
2017-11-01T10:38:03.563Z,70.0
2017-11-01T10:39:05.223Z,69.0
2017-11-01T10:40:07.044Z,68.8
2017-11-01T10:41:09.853Z,69.1
2017-11-01T10:42:11.345Z,68.6
2017-11-01T10:43:12.956Z,69.2
2017-11-01T10:44:14.898Z,69.1
2017-11-01T10:45:17.004Z,68.5
2017-11-01T10:46:19.091Z,68.2
2017-11-01T10:47:20.760Z,68.9
2017-11-01T10:48:22.331Z,68.3
2017-11-01T10:49:23.956Z,68.4
2017-11-01T10:50:25.483Z,68.0
2017-11-01T10:51:27.126Z,68.4
2017-11-01T10:52:28.677Z,67.5
2017-11-01T10:53:30.334Z,68.1
2017-11-01T10:54:32.028Z,67.5
2017-11-01T10:55:33.644Z,68.0
2017-11-01T10:56:35.174Z,67.8
2017-11-01T10:57:37.745Z,67.3
2017-11-01T10:58:39.226Z,67.0
2017-11-01T10:59:40.763Z,67.1
2017-11-01T11:00:42.528Z,67.0
2017-11-01T11:01:44.259Z,67.6
2017-11-01T11:02:45.822Z,67.5
2017-11-01T11:03:47.582Z,65.1
2017-11-01T11:04:49.149Z,65.2
2017-11-01T11:05:50.898Z,64.5
2017-11-01T11:06:52.447Z,65.0
2017-11-01T11:07:54.056Z,65.6
2017-11-01T11:08:55.591Z,65.8
2017-11-01T11:09:57.199Z,64.6
2017-11-01T11:10:58.722Z,64.6
2017-11-01T11:12:01.109Z,64.8
2017-11-01T11:13:02.842Z,63.9
2017-11-01T11:14:04.428Z,63.7
2017-11-01T11:15:05.904Z,64.2
2017-11-01T11:16:07.454Z,65.6
2017-11-01T11:17:09.091Z,64.6
2017-11-01T11:18:10.685Z,63.8
2017-11-01T11:19:12.201Z,63.3
2017-11-01T11:20:13.864Z,64.1
2017-11-01T11:21:15.516Z,64.4
2017-11-01T11:22:17.148Z,64.7
2017-11-01T11:23:18.663Z,63.2
2017-11-01T11:24:20.227Z,63.2
2017-11-01T11:25:21.802Z,63.3
2017-11-01T11:26:23.363Z,64.3
2017-11-01T11:27:24.924Z,62.6
2017-11-01T11:28:27.550Z,62.0
2017-11-01T11:29:29.094Z,64.2
2017-11-01T11:30:32.036Z,63.4
2017-11-01T11:31:33.615Z,63.1
2017-11-01T11:32:36.129Z,62.3
2017-11-01T11:33:37.656Z,61.1
2017-11-01T11:34:39.156Z,62.3
2017-11-01T11:35:40.699Z,61.4
2017-11-01T11:36:42.321Z,61.2
2017-11-01T11:37:45.169Z,61.6
2017-11-01T11:38:46.662Z,61.9
2017-11-01T11:39:48.250Z,61.2
2017-11-01T11:40:50.263Z,61.3
2017-11-01T11:41:51.871Z,61.7
2017-11-01T11:42:53.403Z,62.1
2017-11-01T11:43:55.089Z,62.2
2017-11-01T11:44:57.565Z,61.6
2017-11-01T11:46:00.024Z,62.1
2017-11-01T11:47:01.582Z,62.0
2017-11-01T11:48:03.129Z,61.9
2017-11-01T11:49:04.718Z,61.7
2017-11-01T11:50:06.284Z,61.4
2017-11-01T11:51:07.872Z,60.8
2017-11-01T11:52:09.430Z,60.4
2017-11-01T11:53:10.959Z,60.0
2017-11-01T11:54:12.467Z,61.9
2017-11-01T11:55:14.013Z,61.2
2017-11-01T11:56:15.557Z,59.9
2017-11-01T11:57:17.088Z,61.2
2017-11-01T11:58:18.615Z,60.8
2017-11-01T11:59:20.154Z,59.6
2017-11-01T12:00:21.723Z,60.1
2017-11-01T12:01:23.240Z,60.0
2017-11-01T12:02:24.784Z,60.0
2017-11-01T12:03:26.396Z,60.0
2017-11-01T12:04:27.899Z,60.5
2017-11-01T12:05:29.450Z,60.6
2017-11-01T12:06:31.015Z,58.9
2017-11-01T12:07:32.514Z,57.4
2017-11-01T12:08:34.059Z,57.7
2017-11-01T12:09:35.616Z,57.3
2017-11-01T12:10:37.378Z,58.3
2017-11-01T12:11:38.910Z,58.6
2017-11-01T12:12:40.483Z,57.6
2017-11-01T12:13:42.062Z,56.3
2017-11-01T12:14:43.648Z,57.4
2017-11-01T12:15:45.200Z,58.9
2017-11-01T12:16:46.727Z,59.2
2017-11-01T12:17:48.288Z,58.4
2017-11-01T12:18:50.091Z,58.9
2017-11-01T12:19:51.649Z,57.1
2017-11-01T12:20:53.207Z,57.5
2017-11-01T12:21:54.740Z,57.3
2017-11-01T12:22:57.303Z,58.1
2017-11-01T12:23:58.927Z,57.7
2017-11-01T12:25:00.453Z,58.6
2017-11-01T12:26:01.961Z,58.5
2017-11-01T12:27:03.504Z,57.3
2017-11-01T12:28:05.043Z,57.5
2017-11-01T12:29:06.617Z,57.0
2017-11-01T12:30:08.241Z,58.4
2017-11-01T12:31:09.926Z,59.2
2017-11-01T12:32:11.666Z,58.5
2017-11-01T12:33:13.287Z,57.3
2017-11-01T12:34:14.925Z,57.7
2017-11-01T12:35:16.538Z,57.2
2017-11-01T12:36:18.382Z,57.0
2017-11-01T12:37:21.050Z,56.4
2017-11-01T12:38:22.631Z,57.5
2017-11-01T12:39:24.157Z,57.5
2017-11-01T12:40:25.712Z,58.1
2017-11-01T12:41:27.235Z,56.5
2017-11-01T12:42:28.824Z,56.0
2017-11-01T12:43:30.405Z,55.2
2017-11-01T12:44:31.970Z,55.9
2017-11-01T12:45:34.592Z,57.1
2017-11-01T12:46:36.077Z,56.6
2017-11-01T12:47:37.687Z,56.3
2017-11-01T12:48:39.231Z,55.7
2017-11-01T12:49:40.952Z,55.2
2017-11-01T12:50:42.504Z,55.8
2017-11-01T12:51:44.076Z,55.8
2017-11-01T12:52:45.677Z,55.0
2017-11-01T12:53:47.258Z,55.2
2017-11-01T12:54:48.808Z,55.4
2017-11-01T12:55:50.425Z,55.7
2017-11-01T12:56:51.973Z,56.2
2017-11-01T12:57:53.866Z,56.3
2017-11-01T12:58:55.680Z,57.5
2017-11-01T12:59:57.378Z,57.0
2017-11-01T13:00:59.527Z,56.7
2017-11-01T13:02:01.212Z,56.7
2017-11-01T13:03:02.860Z,57.0
2017-11-01T13:04:04.422Z,56.2
2017-11-01T13:05:06.007Z,54.9
2017-11-01T13:06:07.975Z,55.8
2017-11-01T13:07:10.563Z,56.0
2017-11-01T13:08:12.210Z,55.1
2017-11-01T13:09:13.739Z,55.9
2017-11-01T13:10:15.335Z,53.7
2017-11-01T13:11:16.860Z,53.1
2017-11-01T13:12:18.678Z,53.4
2017-11-01T13:13:20.254Z,53.9
2017-11-01T13:14:22.211Z,52.9
2017-11-01T13:15:23.773Z,53.4
2017-11-01T13:16:25.404Z,54.1
2017-11-01T13:17:26.966Z,54.0
2017-11-01T13:18:28.562Z,53.5
2017-11-01T13:19:30.195Z,54.1
2017-11-01T13:20:31.775Z,54.5
2017-11-01T13:21:33.320Z,55.2
2017-11-01T13:22:35.025Z,55.1
2017-11-01T13:23:36.504Z,55.6
2017-11-01T13:24:38.230Z,56.3
2017-11-01T13:25:39.779Z,57.6
2017-11-01T13:26:41.345Z,58.6
2017-11-01T13:27:43.072Z,57.9
2017-11-01T13:28:44.582Z,57.5
2017-11-01T13:29:48.052Z,57.4
2017-11-01T13:30:49.592Z,58.3
2017-11-01T13:31:51.335Z,58.3
2017-11-01T13:32:52.824Z,58.5
2017-11-01T13:33:54.432Z,58.3
2017-11-01T13:34:56.027Z,58.9
2017-11-01T13:35:57.541Z,58.6
2017-11-01T13:36:59.308Z,58.3
2017-11-01T13:38:00.820Z,58.7
2017-11-01T13:39:02.615Z,58.3
2017-11-01T13:40:05.155Z,58.8